Terminal Aerodrome Forecast
Issued by NWS

Home | Current Version | Previous Version | Text Only | Print | Product List | Glossary On
Versions: 1 2 3 4 5 6 7 8 9 10 11 12 13
000
FTUS42 TJSJ 200520
TAFJBQ
TAF
TJBQ 200520Z 2006/2106 11005KT P6SM VCSH SCT045
     FM201500 07015G22KT P6SM SCT025
     FM202200 09012KT P6SM VCSH SCT025 SCT040=

USA.gov is the U.S. government's official web portal to all federal, state and local government web resources and services.